sensor_id;sensor_type;location;lat;lon;timestamp;temperature;humidity
13409;DHT22;6775;49.574;11.170;2023-04-16T00:01:39;8.10;99.90
13409;DHT22;6775;49.574;11.170;2023-04-16T00:04:07;8.00;99.90
13409;DHT22;6775;49.574;11.170;2023-04-16T00:06:35;8.00;99.90
13409;DHT22;6775;49.574;11.170;2023-04-16T00:09:04;8.00;99.90
13409;DHT22;6775;49.574;11.170;2023-04-16T00:11:33;8.00;99.90
13409;DHT22;6775;49.574;11.170;2023-04-16T00:14:00;8.00;99.90
13409;DHT22;6775;49.574;11.170;2023-04-16T00:16:28;8.00;99.90
13409;DHT22;6775;49.574;11.170;2023-04-16T00:18:56;8.00;99.90
13409;DHT22;6775;49.574;11.170;2023-04-16T00:21:24;8.00;99.90
13409;DHT22;6775;49.574;11.170;2023-04-16T00:23:52;8.10;99.90
13409;DHT22;6775;49.574;11.170;2023-04-16T00:26:21;8.00;99.90
13409;DHT22;6775;49.574;11.170;2023-04-16T00:28:49;8.00;99.90
13409;DHT22;6775;49.574;11.170;2023-04-16T00:31:17;7.90;99.90
13409;DHT22;6775;49.574;11.170;2023-04-16T00:33:45;8.00;99.90
13409;DHT22;6775;49.574;11.170;2023-04-16T00:36:12;8.00;99.90
13409;DHT22;6775;49.574;11.170;2023-04-16T00:38:40;8.00;99.90
13409;DHT22;6775;49.574;11.170;2023-04-16T00:41:08;7.90;99.90
13409;DHT22;6775;49.574;11.170;2023-04-16T00:43:37;7.90;99.90
13409;DHT22;6775;49.574;11.170;2023-04-16T00:46:05;7.90;99.90
13409;DHT22;6775;49.574;11.170;2023-04-16T00:48:34;8.00;99.90
13409;DHT22;6775;49.574;11.170;2023-04-16T00:51:03;7.90;99.90
13409;DHT22;6775;49.574;11.170;2023-04-16T00:53:32;8.00;99.90
13409;DHT22;6775;49.574;11.170;2023-04-16T00:56:02;8.00;99.90
13409;DHT22;6775;49.574;11.170;2023-04-16T00:58:31;8.00;99.90
13409;DHT22;6775;49.574;11.170;2023-04-16T01:01:00;7.90;99.90
13409;DHT22;6775;49.574;11.170;2023-04-16T01:03:36;7.90;99.90
13409;DHT22;6775;49.574;11.170;2023-04-16T01:06:05;8.00;99.90
13409;DHT22;6775;49.574;11.170;2023-04-16T01:08:33;8.00;99.90
13409;DHT22;6775;49.574;11.170;2023-04-16T01:11:01;8.00;99.90
13409;DHT22;6775;49.574;11.170;2023-04-16T01:13:29;8.00;99.90
13409;DHT22;6775;49.574;11.170;2023-04-16T01:15:57;8.00;99.90
13409;DHT22;6775;49.574;11.170;2023-04-16T01:18:26;8.00;99.90
13409;DHT22;6775;49.574;11.170;2023-04-16T01:20:55;8.00;99.90
13409;DHT22;6775;49.574;11.170;2023-04-16T01:23:23;8.00;99.90
13409;DHT22;6775;49.574;11.170;2023-04-16T01:25:51;8.00;99.90
13409;DHT22;6775;49.574;11.170;2023-04-16T01:28:19;8.00;99.90
13409;DHT22;6775;49.574;11.170;2023-04-16T01:30:47;8.00;99.90
13409;DHT22;6775;49.574;11.170;2023-04-16T01:33:14;8.00;99.90
13409;DHT22;6775;49.574;11.170;2023-04-16T01:35:43;8.00;99.90
13409;DHT22;6775;49.574;11.170;2023-04-16T01:38:12;8.00;99.90
13409;DHT22;6775;49.574;11.170;2023-04-16T01:40:40;8.00;99.90
13409;DHT22;6775;49.574;11.170;2023-04-16T01:43:08;8.00;99.90
13409;DHT22;6775;49.574;11.170;2023-04-16T01:45:36;8.00;99.90
13409;DHT22;6775;49.574;11.170;2023-04-16T01:48:04;8.00;99.90
13409;DHT22;6775;49.574;11.170;2023-04-16T01:50:32;8.00;99.90
13409;DHT22;6775;49.574;11.170;2023-04-16T01:53:00;8.00;99.90
13409;DHT22;6775;49.574;11.170;2023-04-16T01:55:32;8.00;99.90
13409;DHT22;6775;49.574;11.170;2023-04-16T01:58:00;8.00;99.90
13409;DHT22;6775;49.574;11.170;2023-04-16T02:00:28;8.00;99.90
13409;DHT22;6775;49.574;11.170;2023-04-16T02:02:56;8.00;99.90
13409;DHT22;6775;49.574;11.170;2023-04-16T02:05:24;8.00;99.90
13409;DHT22;6775;49.574;11.170;2023-04-16T02:07:51;8.00;99.90
13409;DHT22;6775;49.574;11.170;2023-04-16T02:10:19;8.00;99.90
13409;DHT22;6775;49.574;11.170;2023-04-16T02:12:49;8.00;99.90
13409;DHT22;6775;49.574;11.170;2023-04-16T02:15:16;8.00;99.90
13409;DHT22;6775;49.574;11.170;2023-04-16T02:17:44;8.00;99.90
13409;DHT22;6775;49.574;11.170;2023-04-16T02:20:14;8.00;99.90
13409;DHT22;6775;49.574;11.170;2023-04-16T02:22:43;8.00;99.90
13409;DHT22;6775;49.574;11.170;2023-04-16T02:25:11;8.00;99.90
13409;DHT22;6775;49.574;11.170;2023-04-16T02:27:39;8.00;99.90
13409;DHT22;6775;49.574;11.170;2023-04-16T02:30:10;8.00;99.90
13409;DHT22;6775;49.574;11.170;2023-04-16T02:32:37;8.00;99.90
13409;DHT22;6775;49.574;11.170;2023-04-16T02:35:06;8.00;99.90
13409;DHT22;6775;49.574;11.170;2023-04-16T02:37:34;8.00;99.90
13409;DHT22;6775;49.574;11.170;2023-04-16T02:40:02;8.00;99.90
13409;DHT22;6775;49.574;11.170;2023-04-16T02:42:29;8.00;99.90
13409;DHT22;6775;49.574;11.170;2023-04-16T02:44:57;8.00;99.90
13409;DHT22;6775;49.574;11.170;2023-04-16T02:47:27;8.00;99.90
13409;DHT22;6775;49.574;11.170;2023-04-16T02:49:55;8.00;99.90
13409;DHT22;6775;49.574;11.170;2023-04-16T02:52:23;8.00;99.90
13409;DHT22;6775;49.574;11.170;2023-04-16T02:54:51;8.10;99.90
13409;DHT22;6775;49.574;11.170;2023-04-16T02:57:19;8.00;99.90
13409;DHT22;6775;49.574;11.170;2023-04-16T02:59:47;8.00;99.90
13409;DHT22;6775;49.574;11.170;2023-04-16T03:02:14;8.00;99.90
13409;DHT22;6775;49.574;11.170;2023-04-16T03:04:44;8.00;99.90
13409;DHT22;6775;49.574;11.170;2023-04-16T03:07:12;8.00;99.90
13409;DHT22;6775;49.574;11.170;2023-04-16T03:09:40;8.00;99.90
13409;DHT22;6775;49.574;11.170;2023-04-16T03:12:07;8.00;99.90
13409;DHT22;6775;49.574;11.170;2023-04-16T03:14:35;8.00;99.90
13409;DHT22;6775;49.574;11.170;2023-04-16T03:17:03;8.10;99.90
13409;DHT22;6775;49.574;11.170;2023-04-16T03:19:31;8.10;99.90
13409;DHT22;6775;49.574;11.170;2023-04-16T03:22:00;8.10;99.90
13409;DHT22;6775;49.574;11.170;2023-04-16T03:24:28;8.10;99.90
13409;DHT22;6775;49.574;11.170;2023-04-16T03:26:56;8.10;99.90
13409;DHT22;6775;49.574;11.170;2023-04-16T03:29:24;8.00;99.90
13409;DHT22;6775;49.574;11.170;2023-04-16T03:31:52;8.10;99.90
13409;DHT22;6775;49.574;11.170;2023-04-16T03:34:20;8.10;99.90
13409;DHT22;6775;49.574;11.170;2023-04-16T03:36:48;8.10;99.90
13409;DHT22;6775;49.574;11.170;2023-04-16T03:39:18;8.10;99.90
13409;DHT22;6775;49.574;11.170;2023-04-16T03:41:46;8.10;99.90
13409;DHT22;6775;49.574;11.170;2023-04-16T03:44:13;8.00;99.90
13409;DHT22;6775;49.574;11.170;2023-04-16T03:46:41;8.10;99.90
13409;DHT22;6775;49.574;11.170;2023-04-16T03:49:09;8.00;99.90
13409;DHT22;6775;49.574;11.170;2023-04-16T03:51:37;8.00;99.90
13409;DHT22;6775;49.574;11.170;2023-04-16T03:54:05;8.20;99.90
13409;DHT22;6775;49.574;11.170;2023-04-16T03:56:34;8.10;99.90
13409;DHT22;6775;49.574;11.170;2023-04-16T03:59:02;8.10;99.90
13409;DHT22;6775;49.574;11.170;2023-04-16T04:01:30;8.10;99.90
13409;DHT22;6775;49.574;11.170;2023-04-16T04:03:58;8.10;99.90
13409;DHT22;6775;49.574;11.170;2023-04-16T04:06:26;8.10;99.90
13409;DHT22;6775;49.574;11.170;2023-04-16T04:08:54;8.10;99.90
13409;DHT22;6775;49.574;11.170;2023-04-16T04:11:22;8.00;99.90
13409;DHT22;6775;49.574;11.170;2023-04-16T04:13:51;8.00;99.90
13409;DHT22;6775;49.574;11.170;2023-04-16T04:16:19;8.00;99.90
13409;DHT22;6775;49.574;11.170;2023-04-16T04:18:46;8.00;99.90
13409;DHT22;6775;49.574;11.170;2023-04-16T04:21:14;8.00;99.90
13409;DHT22;6775;49.574;11.170;2023-04-16T04:23:42;8.00;99.90
13409;DHT22;6775;49.574;11.170;2023-04-16T04:26:10;8.00;99.90
13409;DHT22;6775;49.574;11.170;2023-04-16T04:28:38;8.00;99.90
13409;DHT22;6775;49.574;11.170;2023-04-16T04:31:07;8.00;99.90
13409;DHT22;6775;49.574;11.170;2023-04-16T04:33:35;8.00;99.90
13409;DHT22;6775;49.574;11.170;2023-04-16T04:36:03;8.00;99.90
13409;DHT22;6775;49.574;11.170;2023-04-16T04:38:31;8.10;99.90
13409;DHT22;6775;49.574;11.170;2023-04-16T04:40:59;8.10;99.90
13409;DHT22;6775;49.574;11.170;2023-04-16T04:43:27;8.10;99.90
13409;DHT22;6775;49.574;11.170;2023-04-16T04:45:54;8.10;99.90
13409;DHT22;6775;49.574;11.170;2023-04-16T04:48:23;8.10;99.90
13409;DHT22;6775;49.574;11.170;2023-04-16T04:50:52;8.10;99.90
13409;DHT22;6775;49.574;11.170;2023-04-16T04:53:20;8.10;99.90
13409;DHT22;6775;49.574;11.170;2023-04-16T04:55:48;8.20;99.90
13409;DHT22;6775;49.574;11.170;2023-04-16T04:58:19;8.10;99.90
13409;DHT22;6775;49.574;11.170;2023-04-16T05:00:47;8.10;99.90
13409;DHT22;6775;49.574;11.170;2023-04-16T05:03:19;8.20;99.90
13409;DHT22;6775;49.574;11.170;2023-04-16T05:05:49;8.20;99.90
13409;DHT22;6775;49.574;11.170;2023-04-16T05:08:16;8.20;99.90
13409;DHT22;6775;49.574;11.170;2023-04-16T05:10:44;8.20;99.90
13409;DHT22;6775;49.574;11.170;2023-04-16T05:13:12;8.20;99.90
13409;DHT22;6775;49.574;11.170;2023-04-16T05:15:40;8.20;99.90
13409;DHT22;6775;49.574;11.170;2023-04-16T05:18:08;8.30;99.90
13409;DHT22;6775;49.574;11.170;2023-04-16T05:20:36;8.30;99.90
13409;DHT22;6775;49.574;11.170;2023-04-16T05:23:05;8.30;99.90
13409;DHT22;6775;49.574;11.170;2023-04-16T05:25:33;8.30;99.90
13409;DHT22;6775;49.574;11.170;2023-04-16T05:28:01;8.20;99.90
13409;DHT22;6775;49.574;11.170;2023-04-16T05:30:29;8.20;99.90
13409;DHT22;6775;49.574;11.170;2023-04-16T05:32:57;8.20;99.90
13409;DHT22;6775;49.574;11.170;2023-04-16T05:35:24;8.20;99.90
13409;DHT22;6775;49.574;11.170;2023-04-16T05:37:53;8.30;99.90
13409;DHT22;6775;49.574;11.170;2023-04-16T05:40:22;8.20;99.90
13409;DHT22;6775;49.574;11.170;2023-04-16T05:42:50;8.20;99.90
13409;DHT22;6775;49.574;11.170;2023-04-16T05:45:17;8.20;99.90
13409;DHT22;6775;49.574;11.170;2023-04-16T05:47:45;8.20;99.90
13409;DHT22;6775;49.574;11.170;2023-04-16T05:50:13;8.20;99.90
13409;DHT22;6775;49.574;11.170;2023-04-16T05:52:41;8.20;99.90
13409;DHT22;6775;49.574;11.170;2023-04-16T05:55:09;8.40;99.90
13409;DHT22;6775;49.574;11.170;2023-04-16T05:57:38;8.30;99.90
13409;DHT22;6775;49.574;11.170;2023-04-16T06:00:07;8.20;99.90
13409;DHT22;6775;49.574;11.170;2023-04-16T06:02:35;8.20;99.90
13409;DHT22;6775;49.574;11.170;2023-04-16T06:05:03;8.20;99.90
13409;DHT22;6775;49.574;11.170;2023-04-16T06:07:31;8.30;99.90
13409;DHT22;6775;49.574;11.170;2023-04-16T06:09:59;8.30;99.90
13409;DHT22;6775;49.574;11.170;2023-04-16T06:12:27;8.30;99.90
13409;DHT22;6775;49.574;11.170;2023-04-16T06:14:56;8.30;99.90
13409;DHT22;6775;49.574;11.170;2023-04-16T06:17:24;8.30;99.90
13409;DHT22;6775;49.574;11.170;2023-04-16T06:19:52;8.30;99.90
13409;DHT22;6775;49.574;11.170;2023-04-16T06:22:20;8.30;99.90
13409;DHT22;6775;49.574;11.170;2023-04-16T06:24:48;8.30;99.90
13409;DHT22;6775;49.574;11.170;2023-04-16T06:27:16;8.30;99.90
13409;DHT22;6775;49.574;11.170;2023-04-16T06:29:43;8.30;99.90
13409;DHT22;6775;49.574;11.170;2023-04-16T06:32:13;8.30;99.90
13409;DHT22;6775;49.574;11.170;2023-04-16T06:34:42;8.40;99.90
13409;DHT22;6775;49.574;11.170;2023-04-16T06:37:10;8.40;99.90
13409;DHT22;6775;49.574;11.170;2023-04-16T06:39:38;8.30;99.90
13409;DHT22;6775;49.574;11.170;2023-04-16T06:42:06;8.40;99.90
13409;DHT22;6775;49.574;11.170;2023-04-16T06:44:34;8.40;99.90
13409;DHT22;6775;49.574;11.170;2023-04-16T06:47:02;8.40;99.90
13409;DHT22;6775;49.574;11.170;2023-04-16T06:49:32;8.50;99.90
13409;DHT22;6775;49.574;11.170;2023-04-16T06:51:59;8.50;99.90
13409;DHT22;6775;49.574;11.170;2023-04-16T06:54:31;8.50;99.90
13409;DHT22;6775;49.574;11.170;2023-04-16T06:56:59;8.50;99.90
13409;DHT22;6775;49.574;11.170;2023-04-16T06:59:27;8.50;99.90
13409;DHT22;6775;49.574;11.170;2023-04-16T07:01:55;8.60;99.90
13409;DHT22;6775;49.574;11.170;2023-04-16T07:04:23;8.70;99.90
13409;DHT22;6775;49.574;11.170;2023-04-16T07:06:52;8.70;99.90
13409;DHT22;6775;49.574;11.170;2023-04-16T07:09:20;8.70;99.90
13409;DHT22;6775;49.574;11.170;2023-04-16T07:11:47;8.70;99.90
13409;DHT22;6775;49.574;11.170;2023-04-16T07:14:15;8.80;99.90
13409;DHT22;6775;49.574;11.170;2023-04-16T07:16:43;8.80;99.90
13409;DHT22;6775;49.574;11.170;2023-04-16T07:19:11;8.90;99.90
13409;DHT22;6775;49.574;11.170;2023-04-16T07:21:39;8.90;99.90
13409;DHT22;6775;49.574;11.170;2023-04-16T07:24:10;8.90;99.90
13409;DHT22;6775;49.574;11.170;2023-04-16T07:26:38;9.00;99.90
13409;DHT22;6775;49.574;11.170;2023-04-16T07:29:06;9.20;99.90
13409;DHT22;6775;49.574;11.170;2023-04-16T07:31:34;9.10;99.90
13409;DHT22;6775;49.574;11.170;2023-04-16T07:34:02;9.10;99.90
13409;DHT22;6775;49.574;11.170;2023-04-16T07:36:29;9.20;99.90
13409;DHT22;6775;49.574;11.170;2023-04-16T07:38:57;9.20;99.90
13409;DHT22;6775;49.574;11.170;2023-04-16T07:41:26;9.30;99.90
13409;DHT22;6775;49.574;11.170;2023-04-16T07:43:55;9.20;99.90
13409;DHT22;6775;49.574;11.170;2023-04-16T07:46:23;9.40;99.90
13409;DHT22;6775;49.574;11.170;2023-04-16T07:48:58;9.30;99.90
13409;DHT22;6775;49.574;11.170;2023-04-16T07:51:26;9.30;99.90
13409;DHT22;6775;49.574;11.170;2023-04-16T07:53:54;9.40;99.90
13409;DHT22;6775;49.574;11.170;2023-04-16T07:56:22;9.40;99.90
13409;DHT22;6775;49.574;11.170;2023-04-16T07:58:51;9.40;99.90
13409;DHT22;6775;49.574;11.170;2023-04-16T08:01:19;9.50;99.90
13409;DHT22;6775;49.574;11.170;2023-04-16T08:03:47;9.50;99.90
13409;DHT22;6775;49.574;11.170;2023-04-16T08:06:15;9.50;99.90
13409;DHT22;6775;49.574;11.170;2023-04-16T08:08:42;9.60;99.90
13409;DHT22;6775;49.574;11.170;2023-04-16T08:11:10;9.60;99.90
13409;DHT22;6775;49.574;11.170;2023-04-16T08:13:38;9.60;99.90
13409;DHT22;6775;49.574;11.170;2023-04-16T08:16:08;9.70;99.90
13409;DHT22;6775;49.574;11.170;2023-04-16T08:18:36;9.80;99.90
13409;DHT22;6775;49.574;11.170;2023-04-16T08:21:03;9.70;99.90
13409;DHT22;6775;49.574;11.170;2023-04-16T08:23:31;9.80;99.90
13409;DHT22;6775;49.574;11.170;2023-04-16T08:26:00;9.80;99.90
13409;DHT22;6775;49.574;11.170;2023-04-16T08:28:28;9.90;99.90
13409;DHT22;6775;49.574;11.170;2023-04-16T08:30:55;9.90;99.90
13409;DHT22;6775;49.574;11.170;2023-04-16T08:33:25;10.00;99.90
13409;DHT22;6775;49.574;11.170;2023-04-16T08:35:53;10.20;99.90
13409;DHT22;6775;49.574;11.170;2023-04-16T08:38:20;10.30;99.90
13409;DHT22;6775;49.574;11.170;2023-04-16T08:40:48;10.40;99.90
13409;DHT22;6775;49.574;11.170;2023-04-16T08:43:18;10.50;99.90
13409;DHT22;6775;49.574;11.170;2023-04-16T08:45:48;10.60;99.90
13409;DHT22;6775;49.574;11.170;2023-04-16T08:48:17;10.60;99.90
13409;DHT22;6775;49.574;11.170;2023-04-16T08:50:51;10.70;99.90
13409;DHT22;6775;49.574;11.170;2023-04-16T08:53:34;10.70;99.90
13409;DHT22;6775;49.574;11.170;2023-04-16T08:56:03;10.70;99.90
13409;DHT22;6775;49.574;11.170;2023-04-16T08:58:32;10.70;99.90
13409;DHT22;6775;49.574;11.170;2023-04-16T09:01:02;10.70;99.90
13409;DHT22;6775;49.574;11.170;2023-04-16T09:03:30;10.80;99.90
13409;DHT22;6775;49.574;11.170;2023-04-16T09:06:03;10.80;99.90
13409;DHT22;6775;49.574;11.170;2023-04-16T09:08:33;10.90;99.90
13409;DHT22;6775;49.574;11.170;2023-04-16T09:11:01;10.90;99.90
13409;DHT22;6775;49.574;11.170;2023-04-16T09:13:30;10.80;99.90
13409;DHT22;6775;49.574;11.170;2023-04-16T09:15:58;10.90;99.90
13409;DHT22;6775;49.574;11.170;2023-04-16T09:18:27;10.90;99.90
13409;DHT22;6775;49.574;11.170;2023-04-16T09:20:55;11.00;99.90
13409;DHT22;6775;49.574;11.170;2023-04-16T09:23:24;11.10;99.90
13409;DHT22;6775;49.574;11.170;2023-04-16T09:25:52;11.20;99.90
13409;DHT22;6775;49.574;11.170;2023-04-16T09:28:38;11.20;99.90
13409;DHT22;6775;49.574;11.170;2023-04-16T09:31:10;11.30;99.90
13409;DHT22;6775;49.574;11.170;2023-04-16T09:33:39;11.30;99.90
13409;DHT22;6775;49.574;11.170;2023-04-16T09:36:08;11.30;99.90
13409;DHT22;6775;49.574;11.170;2023-04-16T09:38:47;11.30;99.90
13409;DHT22;6775;49.574;11.170;2023-04-16T09:41:15;11.20;99.90
13409;DHT22;6775;49.574;11.170;2023-04-16T09:43:53;11.10;99.90
13409;DHT22;6775;49.574;11.170;2023-04-16T09:46:23;11.20;99.90
13409;DHT22;6775;49.574;11.170;2023-04-16T09:48:51;11.00;99.90
13409;DHT22;6775;49.574;11.170;2023-04-16T09:51:19;10.90;99.90
13409;DHT22;6775;49.574;11.170;2023-04-16T09:53:50;10.80;99.90
13409;DHT22;6775;49.574;11.170;2023-04-16T09:56:22;10.70;99.90
13409;DHT22;6775;49.574;11.170;2023-04-16T09:58:56;10.70;99.90
13409;DHT22;6775;49.574;11.170;2023-04-16T10:01:25;10.70;99.90
13409;DHT22;6775;49.574;11.170;2023-04-16T10:03:53;10.70;99.90
13409;DHT22;6775;49.574;11.170;2023-04-16T10:06:23;10.70;99.90
13409;DHT22;6775;49.574;11.170;2023-04-16T10:08:54;10.70;99.90
13409;DHT22;6775;49.574;11.170;2023-04-16T10:11:23;10.60;99.90
13409;DHT22;6775;49.574;11.170;2023-04-16T10:13:51;10.60;99.90
13409;DHT22;6775;49.574;11.170;2023-04-16T10:16:19;10.70;99.90
13409;DHT22;6775;49.574;11.170;2023-04-16T10:18:48;10.70;99.90
13409;DHT22;6775;49.574;11.170;2023-04-16T10:21:16;10.70;99.90
13409;DHT22;6775;49.574;11.170;2023-04-16T10:23:44;10.70;99.90
13409;DHT22;6775;49.574;11.170;2023-04-16T10:26:14;10.70;99.90
13409;DHT22;6775;49.574;11.170;2023-04-16T10:28:44;10.70;99.90
13409;DHT22;6775;49.574;11.170;2023-04-16T10:31:12;10.70;99.90
13409;DHT22;6775;49.574;11.170;2023-04-16T10:33:40;10.70;99.90
13409;DHT22;6775;49.574;11.170;2023-04-16T10:36:09;10.70;99.90
13409;DHT22;6775;49.574;11.170;2023-04-16T10:38:38;10.70;99.90
13409;DHT22;6775;49.574;11.170;2023-04-16T10:41:07;10.70;99.90
13409;DHT22;6775;49.574;11.170;2023-04-16T10:43:41;10.60;99.90
13409;DHT22;6775;49.574;11.170;2023-04-16T10:46:22;10.70;99.90
13409;DHT22;6775;49.574;11.170;2023-04-16T10:48:53;10.60;99.90
13409;DHT22;6775;49.574;11.170;2023-04-16T10:51:26;10.60;99.90
13409;DHT22;6775;49.574;11.170;2023-04-16T10:53:55;10.70;99.90
13409;DHT22;6775;49.574;11.170;2023-04-16T10:56:24;10.70;99.90
13409;DHT22;6775;49.574;11.170;2023-04-16T10:58:54;10.70;99.90
13409;DHT22;6775;49.574;11.170;2023-04-16T11:01:29;10.70;99.90
13409;DHT22;6775;49.574;11.170;2023-04-16T11:03:59;10.70;99.90
13409;DHT22;6775;49.574;11.170;2023-04-16T11:06:28;10.80;99.90
13409;DHT22;6775;49.574;11.170;2023-04-16T11:08:57;10.80;99.90
13409;DHT22;6775;49.574;11.170;2023-04-16T11:11:26;10.80;99.90
13409;DHT22;6775;49.574;11.170;2023-04-16T11:13:56;10.70;99.90
13409;DHT22;6775;49.574;11.170;2023-04-16T11:16:24;10.70;99.90
13409;DHT22;6775;49.574;11.170;2023-04-16T11:18:55;10.70;99.90
13409;DHT22;6775;49.574;11.170;2023-04-16T11:21:23;10.70;99.90
13409;DHT22;6775;49.574;11.170;2023-04-16T11:23:52;10.80;99.90
13409;DHT22;6775;49.574;11.170;2023-04-16T11:26:25;10.90;99.90
13409;DHT22;6775;49.574;11.170;2023-04-16T11:28:53;10.90;99.90
13409;DHT22;6775;49.574;11.170;2023-04-16T11:31:23;10.90;99.90
13409;DHT22;6775;49.574;11.170;2023-04-16T11:33:54;10.90;99.90
13409;DHT22;6775;49.574;11.170;2023-04-16T11:36:22;10.90;99.90
13409;DHT22;6775;49.574;11.170;2023-04-16T11:39:00;10.90;99.90
13409;DHT22;6775;49.574;11.170;2023-04-16T11:41:28;11.00;99.90
13409;DHT22;6775;49.574;11.170;2023-04-16T11:43:56;11.00;99.90
13409;DHT22;6775;49.574;11.170;2023-04-16T11:46:36;11.10;99.90
13409;DHT22;6775;49.574;11.170;2023-04-16T11:49:05;11.10;99.90
13409;DHT22;6775;49.574;11.170;2023-04-16T11:51:37;11.10;99.90
13409;DHT22;6775;49.574;11.170;2023-04-16T11:54:05;11.10;99.90
13409;DHT22;6775;49.574;11.170;2023-04-16T11:56:37;11.10;99.90
13409;DHT22;6775;49.574;11.170;2023-04-16T11:59:10;11.10;99.90
13409;DHT22;6775;49.574;11.170;2023-04-16T12:01:42;11.10;99.90
13409;DHT22;6775;49.574;11.170;2023-04-16T12:04:12;11.10;99.90
13409;DHT22;6775;49.574;11.170;2023-04-16T12:07:05;11.10;99.90
13409;DHT22;6775;49.574;11.170;2023-04-16T12:09:34;11.00;99.90
13409;DHT22;6775;49.574;11.170;2023-04-16T12:12:12;11.00;99.90
13409;DHT22;6775;49.574;11.170;2023-04-16T12:14:51;11.00;99.90
13409;DHT22;6775;49.574;11.170;2023-04-16T12:17:21;11.00;99.90
13409;DHT22;6775;49.574;11.170;2023-04-16T12:19:50;11.00;99.90
13409;DHT22;6775;49.574;11.170;2023-04-16T12:22:27;11.00;99.90
13409;DHT22;6775;49.574;11.170;2023-04-16T12:24:57;11.00;99.90
13409;DHT22;6775;49.574;11.170;2023-04-16T12:27:25;10.90;99.90
13409;DHT22;6775;49.574;11.170;2023-04-16T12:30:04;10.90;99.90
13409;DHT22;6775;49.574;11.170;2023-04-16T12:32:34;10.90;99.90
13409;DHT22;6775;49.574;11.170;2023-04-16T12:35:02;10.90;99.90
13409;DHT22;6775;49.574;11.170;2023-04-16T12:37:30;10.90;99.90
13409;DHT22;6775;49.574;11.170;2023-04-16T12:39:58;10.90;99.90
13409;DHT22;6775;49.574;11.170;2023-04-16T12:42:26;11.00;99.90
13409;DHT22;6775;49.574;11.170;2023-04-16T12:44:59;11.00;99.90
13409;DHT22;6775;49.574;11.170;2023-04-16T12:47:26;11.00;99.90
13409;DHT22;6775;49.574;11.170;2023-04-16T12:49:56;11.00;99.90
13409;DHT22;6775;49.574;11.170;2023-04-16T12:52:24;11.00;99.90
13409;DHT22;6775;49.574;11.170;2023-04-16T12:54:52;11.10;99.90
13409;DHT22;6775;49.574;11.170;2023-04-16T12:57:20;11.20;99.90
13409;DHT22;6775;49.574;11.170;2023-04-16T12:59:54;11.20;99.90
13409;DHT22;6775;49.574;11.170;2023-04-16T13:02:22;11.30;99.90
13409;DHT22;6775;49.574;11.170;2023-04-16T13:04:51;11.40;99.90
13409;DHT22;6775;49.574;11.170;2023-04-16T13:07:20;11.50;99.90
13409;DHT22;6775;49.574;11.170;2023-04-16T13:09:48;11.50;99.90
13409;DHT22;6775;49.574;11.170;2023-04-16T13:12:16;11.50;99.90
13409;DHT22;6775;49.574;11.170;2023-04-16T13:14:44;11.60;99.90
13409;DHT22;6775;49.574;11.170;2023-04-16T13:17:11;11.70;99.90
13409;DHT22;6775;49.574;11.170;2023-04-16T13:19:39;11.80;99.90
13409;DHT22;6775;49.574;11.170;2023-04-16T13:22:07;12.00;99.90
13409;DHT22;6775;49.574;11.170;2023-04-16T13:24:37;12.20;99.90
13409;DHT22;6775;49.574;11.170;2023-04-16T13:27:05;12.30;99.90
13409;DHT22;6775;49.574;11.170;2023-04-16T13:29:34;12.50;99.90
13409;DHT22;6775;49.574;11.170;2023-04-16T13:32:03;12.60;99.90
13409;DHT22;6775;49.574;11.170;2023-04-16T13:34:31;12.80;99.90
13409;DHT22;6775;49.574;11.170;2023-04-16T13:36:59;13.00;99.90
13409;DHT22;6775;49.574;11.170;2023-04-16T13:39:27;13.20;99.90
13409;DHT22;6775;49.574;11.170;2023-04-16T13:41:56;13.50;99.90
13409;DHT22;6775;49.574;11.170;2023-04-16T13:44:24;13.90;99.90
13409;DHT22;6775;49.574;11.170;2023-04-16T13:46:52;14.30;99.90
13409;DHT22;6775;49.574;11.170;2023-04-16T13:49:20;14.60;99.90
13409;DHT22;6775;49.574;11.170;2023-04-16T13:51:48;14.80;99.90
13409;DHT22;6775;49.574;11.170;2023-04-16T13:54:16;14.80;99.90
13409;DHT22;6775;49.574;11.170;2023-04-16T13:56:43;14.90;99.90
13409;DHT22;6775;49.574;11.170;2023-04-16T13:59:13;15.00;99.90
13409;DHT22;6775;49.574;11.170;2023-04-16T14:01:42;15.10;99.90
13409;DHT22;6775;49.574;11.170;2023-04-16T14:04:10;14.90;99.90
13409;DHT22;6775;49.574;11.170;2023-04-16T14:06:37;14.90;99.90
13409;DHT22;6775;49.574;11.170;2023-04-16T14:09:05;14.90;99.90
13409;DHT22;6775;49.574;11.170;2023-04-16T14:11:35;14.90;99.90
13409;DHT22;6775;49.574;11.170;2023-04-16T14:14:03;14.80;99.90
13409;DHT22;6775;49.574;11.170;2023-04-16T14:16:32;14.60;99.90
13409;DHT22;6775;49.574;11.170;2023-04-16T14:19:00;14.40;99.90
13409;DHT22;6775;49.574;11.170;2023-04-16T14:21:29;14.20;99.90
13409;DHT22;6775;49.574;11.170;2023-04-16T14:23:57;14.10;99.90
13409;DHT22;6775;49.574;11.170;2023-04-16T14:26:25;13.90;99.90
13409;DHT22;6775;49.574;11.170;2023-04-16T14:28:53;13.70;99.90
13409;DHT22;6775;49.574;11.170;2023-04-16T14:31:20;13.60;99.90
13409;DHT22;6775;49.574;11.170;2023-04-16T14:33:50;13.40;99.90
13409;DHT22;6775;49.574;11.170;2023-04-16T14:36:18;13.20;99.90
13409;DHT22;6775;49.574;11.170;2023-04-16T14:38:46;13.00;99.90
13409;DHT22;6775;49.574;11.170;2023-04-16T14:41:14;13.00;99.90
13409;DHT22;6775;49.574;11.170;2023-04-16T14:43:42;13.00;99.90
13409;DHT22;6775;49.574;11.170;2023-04-16T14:46:10;13.10;99.90
13409;DHT22;6775;49.574;11.170;2023-04-16T14:48:38;13.10;99.90
13409;DHT22;6775;49.574;11.170;2023-04-16T14:51:07;13.00;99.90
13409;DHT22;6775;49.574;11.170;2023-04-16T14:53:35;12.90;99.90
13409;DHT22;6775;49.574;11.170;2023-04-16T14:56:04;12.90;99.90
13409;DHT22;6775;49.574;11.170;2023-04-16T14:58:32;12.80;99.90
13409;DHT22;6775;49.574;11.170;2023-04-16T15:01:04;12.70;99.90
13409;DHT22;6775;49.574;11.170;2023-04-16T15:03:32;12.50;99.90
13409;DHT22;6775;49.574;11.170;2023-04-16T15:06:00;12.50;99.90
13409;DHT22;6775;49.574;11.170;2023-04-16T15:08:29;12.60;99.90
13409;DHT22;6775;49.574;11.170;2023-04-16T15:10:57;12.60;99.90
13409;DHT22;6775;49.574;11.170;2023-04-16T15:13:25;12.60;99.90
13409;DHT22;6775;49.574;11.170;2023-04-16T15:15:59;12.60;99.90
13409;DHT22;6775;49.574;11.170;2023-04-16T15:18:27;12.60;99.90
13409;DHT22;6775;49.574;11.170;2023-04-16T15:20:55;12.50;99.90
13409;DHT22;6775;49.574;11.170;2023-04-16T15:23:22;12.40;99.90
13409;DHT22;6775;49.574;11.170;2023-04-16T15:25:52;12.30;99.90
13409;DHT22;6775;49.574;11.170;2023-04-16T15:28:19;12.20;99.90
13409;DHT22;6775;49.574;11.170;2023-04-16T15:30:47;12.10;99.90
13409;DHT22;6775;49.574;11.170;2023-04-16T15:33:15;12.00;99.90
13409;DHT22;6775;49.574;11.170;2023-04-16T15:35:43;11.90;99.90
13409;DHT22;6775;49.574;11.170;2023-04-16T15:38:10;11.90;99.90
13409;DHT22;6775;49.574;11.170;2023-04-16T15:40:40;11.90;99.90
13409;DHT22;6775;49.574;11.170;2023-04-16T15:43:09;11.90;99.90
13409;DHT22;6775;49.574;11.170;2023-04-16T15:45:37;11.90;99.90
13409;DHT22;6775;49.574;11.170;2023-04-16T15:48:05;11.80;99.90
13409;DHT22;6775;49.574;11.170;2023-04-16T15:50:33;11.80;99.90